Time;durP1;ratioP1;P1;durP2;ratioP2;P2;SDS_P1;SDS_P2;PMS_P1;PMS_P2;Temp;Humidity;BMP_temperature;BMP_pressure;BME280_temperature;BME280_humidity;BME280_pressure;Samples;Min_cycle;Max_cycle;Signal;HPM_P1;HPM_P2
2021/05/06 00:09:39;;;;;;;12.45;1.90;;;5.30;99.90;;;;;;6121136;23;20014;-86
2021/05/06 00:29:36;;;;;;;13.25;2.22;;;5.30;99.90;;;;;;6141272;23;20018;-87
2021/05/06 00:31:48;;;;;;;13.43;2.47;;;5.20;99.90;;;;;;6122386;23;20018;-86
2021/05/06 00:34:09;;;;;;;10.07;1.88;;;5.20;99.90;;;;;;6139092;23;20016;-85
2021/05/06 00:36:36;;;;;;;9.13;2.80;;;5.30;99.90;;;;;;6122809;23;20014;-85
2021/05/06 00:39:12;;;;;;;10.85;2.35;;;5.30;99.90;;;;;;6121988;23;20029;-86
2021/05/06 00:44:53;;;;;;;12.10;3.03;;;5.30;99.90;;;;;;6121862;23;20499;-86
2021/05/06 01:00:36;;;;;;;14.13;2.75;;;5.20;99.90;;;;;;6146634;23;20347;-86
2021/05/06 01:05:25;;;;;;;12.65;2.33;;;5.20;99.90;;;;;;6146634;23;20020;-86
2021/05/06 01:12:44;;;;;;;11.65;2.58;;;5.10;99.90;;;;;;6122414;23;20021;-86
2021/05/06 01:15:11;;;;;;;14.35;2.42;;;5.10;99.90;;;;;;6145330;23;20006;-86
2021/05/06 01:17:37;;;;;;;14.70;2.70;;;5.10;99.90;;;;;;6121008;23;20018;-86
2021/05/06 01:20:05;;;;;;;14.32;2.90;;;5.10;99.90;;;;;;6097140;23;20022;-86
2021/05/06 01:22:31;;;;;;;10.60;2.80;;;5.10;99.90;;;;;;6121017;23;20118;-86
2021/05/06 01:24:58;;;;;;;13.82;3.55;;;5.00;99.90;;;;;;6121181;23;20014;-87
2021/05/06 01:32:27;;;;;;;16.30;3.03;;;5.00;99.90;;;;;;6144805;23;20022;-86
2021/05/06 01:35:02;;;;;;;9.68;2.88;;;5.00;99.90;;;;;;6169328;23;20392;-86
2021/05/06 01:42:38;;;;;;;13.07;2.75;;;5.10;99.90;;;;;;6144280;23;20010;-85
2021/05/06 01:48:41;;;;;;;8.43;2.33;;;5.20;99.90;;;;;;6145737;23;20018;-86
2021/05/06 01:51:16;;;;;;;9.40;2.85;;;5.10;99.90;;;;;;6085132;23;20576;-86
2021/05/06 02:01:16;;;;;;;10.93;2.65;;;4.90;99.90;;;;;;6097910;23;20444;-86
2021/05/06 02:03:42;;;;;;;13.80;2.88;;;4.80;99.90;;;;;;6048461;23;20016;-86
2021/05/06 02:06:07;;;;;;;7.63;3.08;;;4.70;99.90;;;;;;6072310;23;20017;-86
2021/05/06 02:08:33;;;;;;;6.78;3.00;;;4.70;99.90;;;;;;6072439;23;20021;-86
2021/05/06 02:11:01;;;;;;;9.60;3.08;;;4.80;99.90;;;;;;6096111;23;20506;-86
2021/05/06 02:13:27;;;;;;;13.23;3.13;;;4.70;99.90;;;;;;6145373;23;20014;-86
2021/05/06 02:15:59;;;;;;;15.73;3.75;;;4.70;99.90;;;;;;6096392;23;20017;-86
2021/05/06 02:18:26;;;;;;;8.30;3.30;;;4.70;99.90;;;;;;6073425;23;20347;-86
2021/05/06 02:20:53;;;;;;;10.20;3.45;;;4.70;99.90;;;;;;6095396;23;20014;-87
2021/05/06 02:23:19;;;;;;;9.93;3.35;;;4.70;99.90;;;;;;6072339;23;20452;-87
2021/05/06 02:25:45;;;;;;;8.13;2.97;;;4.70;99.90;;;;;;6072606;23;20033;-86
2021/05/06 02:28:12;;;;;;;8.82;3.03;;;4.70;99.90;;;;;;6072965;23;20014;-85
2021/05/06 02:30:38;;;;;;;8.27;2.97;;;4.60;99.90;;;;;;6072572;23;20468;-86
2021/05/06 02:33:07;;;;;;;14.45;3.83;;;4.60;99.90;;;;;;6096306;23;20340;-86
2021/05/06 02:35:34;;;;;;;11.75;3.53;;;4.60;99.90;;;;;;6095876;23;20018;-86
2021/05/06 02:38:00;;;;;;;14.60;3.92;;;4.60;99.90;;;;;;6096650;23;20010;-85
2021/05/06 02:40:26;;;;;;;13.57;3.40;;;4.50;99.90;;;;;;6071194;23;20427;-86
2021/05/06 02:42:52;;;;;;;11.18;3.65;;;4.50;99.90;;;;;;6071153;23;20006;-87
2021/05/06 02:45:18;;;;;;;7.45;3.60;;;4.60;99.90;;;;;;6104157;23;20097;-85
2021/05/06 02:47:43;;;;;;;9.73;3.88;;;4.70;99.90;;;;;;6144667;23;20535;-86
2021/05/06 02:50:14;;;;;;;11.40;3.22;;;4.80;99.90;;;;;;6095548;23;20093;-85
2021/05/06 02:52:48;;;;;;;9.23;3.72;;;4.80;99.90;;;;;;6095986;23;20021;-86
2021/05/06 03:02:58;;;;;;;13.77;3.75;;;5.00;99.90;;;;;;6121994;23;20014;-86
2021/05/06 03:05:28;;;;;;;12.57;3.15;;;5.00;99.90;;;;;;6096752;23;20072;-86
2021/05/06 03:10:35;;;;;;;8.43;3.95;;;5.10;99.90;;;;;;6143659;23;20720;-86
2021/05/06 03:13:15;;;;;;;10.75;3.95;;;5.10;99.90;;;;;;6096516;23;20014;-86
2021/05/06 03:23:52;;;;;;;7.97;3.58;;;5.10;99.90;;;;;;6141883;23;20016;-87
2021/05/06 03:26:18;;;;;;;8.18;2.83;;;5.10;99.90;;;;;;6169726;23;20010;-85
2021/05/06 03:28:50;;;;;;;12.60;4.43;;;5.10;99.90;;;;;;6121752;23;20070;-86
2021/05/06 03:47:26;;;;;;;8.37;3.27;;;4.80;99.90;;;;;;6120571;23;20014;-86
2021/05/06 04:16:47;;;;;;;6.07;2.33;;;4.80;99.90;;;;;;6122512;23;20025;-86
2021/05/06 04:27:08;;;;;;;5.60;1.70;;;4.90;99.90;;;;;;6122419;23;20068;-85
2021/05/06 04:37:30;;;;;;;5.97;2.05;;;4.90;99.90;;;;;;6124317;23;20100;-86
2021/05/06 04:40:03;;;;;;;5.90;1.20;;;4.90;99.90;;;;;;6122459;23;20396;-85
2021/05/06 05:26:01;;;;;;;5.38;1.30;;;5.00;99.90;;;;;;6123684;23;20010;-87
2021/05/06 05:28:18;;;;;;;4.20;1.10;;;5.10;99.90;;;;;;6122625;23;20104;-86
2021/05/06 05:30:44;;;;;;;2.97;1.23;;;5.10;99.90;;;;;;6145234;23;21363;-86
2021/05/06 05:33:18;;;;;;;3.22;1.13;;;5.10;99.90;;;;;;6145518;23;20018;-86
2021/05/06 05:56:44;;;;;;;4.75;1.25;;;5.50;99.90;;;;;;6122272;23;20010;-87
2021/05/06 05:59:10;;;;;;;3.15;1.30;;;5.50;99.90;;;;;;6144960;23;20028;-86
2021/05/06 06:01:36;;;;;;;2.92;1.17;;;5.60;99.90;;;;;;6145266;23;20375;-86
2021/05/06 06:04:02;;;;;;;3.88;1.30;;;5.70;99.90;;;;;;6095556;23;20101;-86
2021/05/06 06:06:28;;;;;;;4.00;1.30;;;5.70;99.90;;;;;;6145207;23;20014;-86
2021/05/06 06:08:54;;;;;;;6.32;1.35;;;5.70;99.90;;;;;;6072647;23;20457;-86
2021/05/06 06:11:20;;;;;;;6.53;1.33;;;5.80;99.90;;;;;;6119649;23;20105;-86
2021/05/06 06:13:49;;;;;;;5.72;1.60;;;5.90;99.90;;;;;;6096041;23;20085;-87
2021/05/06 06:19:23;;;;;;;4.88;1.55;;;6.00;99.90;;;;;;6124521;23;20702;-86
2021/05/06 06:24:08;;;;;;;6.00;1.90;;;6.20;99.90;;;;;;6120799;23;20466;-86
2021/05/06 06:26:34;;;;;;;6.90;1.65;;;6.20;99.90;;;;;;6120887;23;20025;-85
2021/05/06 06:29:17;;;;;;;4.15;1.63;;;6.30;99.90;;;;;;6096203;23;20451;-86
2021/05/06 06:31:49;;;;;;;5.57;1.80;;;6.30;99.90;;;;;;6143770;23;20017;-86
2021/05/06 06:34:14;;;;;;;6.55;2.17;;;6.40;99.90;;;;;;6144368;23;20009;-86
2021/05/06 06:36:44;;;;;;;6.25;1.90;;;6.40;99.90;;;;;;6096023;23;20356;-86
2021/05/06 06:39:12;;;;;;;6.45;1.95;;;6.50;99.90;;;;;;6168619;23;20049;-87
2021/05/06 06:41:38;;;;;;;8.05;1.83;;;6.50;99.90;;;;;;6094312;23;20456;-86
2021/05/06 06:44:04;;;;;;;6.43;2.20;;;6.60;99.90;;;;;;6095711;23;20109;-86
2021/05/06 06:46:30;;;;;;;9.90;2.17;;;6.60;99.90;;;;;;6169101;23;20033;-86
2021/05/06 06:49:00;;;;;;;9.60;2.20;;;6.70;99.90;;;;;;6120540;23;20104;-86
2021/05/06 06:51:26;;;;;;;4.78;1.80;;;6.70;99.90;;;;;;6117629;23;20010;-86
2021/05/06 06:53:52;;;;;;;3.85;1.70;;;6.80;99.90;;;;;;6121222;23;20020;-87
2021/05/06 06:56:18;;;;;;;5.50;2.38;;;6.90;99.90;;;;;;6122312;23;20041;-86
2021/05/06 06:58:48;;;;;;;10.82;2.28;;;6.90;99.90;;;;;;6122029;23;20014;-86
2021/05/06 07:01:15;;;;;;;6.30;2.03;;;7.00;99.90;;;;;;6096032;23;20014;-87
2021/05/06 07:03:41;;;;;;;6.63;1.85;;;7.10;99.90;;;;;;6145255;23;20064;-86
2021/05/06 07:06:07;;;;;;;6.57;2.63;;;7.20;99.90;;;;;;6146054;23;20392;-87
2021/05/06 07:08:35;;;;;;;6.97;1.92;;;7.20;99.90;;;;;;6122253;23;20088;-86
2021/05/06 07:11:02;;;;;;;8.63;1.35;;;7.30;99.90;;;;;;6143011;23;20018;-86
2021/05/06 07:13:29;;;;;;;6.43;1.25;;;7.20;99.90;;;;;;6145493;23;20589;-87
2021/05/06 07:15:57;;;;;;;7.00;1.50;;;7.20;99.90;;;;;;6143061;23;20037;-87
2021/05/06 07:18:23;;;;;;;8.30;1.55;;;7.20;99.90;;;;;;6145305;23;20014;-87
2021/05/06 07:20:49;;;;;;;8.05;1.67;;;7.30;99.90;;;;;;6096743;23;20097;-87
2021/05/06 07:23:19;;;;;;;7.35;1.75;;;7.40;99.90;;;;;;6119323;23;20088;-87
2021/05/06 07:25:50;;;;;;;6.72;1.38;;;7.40;99.90;;;;;;6121467;23;20014;-86
2021/05/06 07:28:21;;;;;;;7.55;1.60;;;7.50;99.90;;;;;;6122915;23;20014;-87
2021/05/06 07:30:51;;;;;;;5.47;1.92;;;7.60;99.90;;;;;;6097026;23;20468;-87
2021/05/06 07:33:17;;;;;;;4.85;1.70;;;7.70;99.90;;;;;;6145948;23;20017;-87
2021/05/06 07:35:46;;;;;;;7.85;1.70;;;7.80;99.90;;;;;;6097596;23;20082;-88
2021/05/06 07:38:12;;;;;;;8.82;1.75;;;7.90;99.90;;;;;;6097354;23;20044;-88
2021/05/06 07:40:40;;;;;;;7.75;1.42;;;8.00;99.90;;;;;;6111731;23;20031;-87
2021/05/06 07:43:06;;;;;;;8.23;2.00;;;8.10;99.90;;;;;;6141797;23;20014;-87
2021/05/06 07:45:33;;;;;;;5.90;2.22;;;8.10;99.90;;;;;;6120086;23;20129;-87
2021/05/06 07:48:00;;;;;;;8.35;1.98;;;8.20;99.90;;;;;;6097153;23;20037;-86
2021/05/06 07:50:27;;;;;;;8.57;2.00;;;8.20;99.90;;;;;;6096529;23;20029;-87
2021/05/06 07:53:01;;;;;;;4.93;1.90;;;8.20;99.90;;;;;;6098336;23;20452;-86
2021/05/06 07:55:27;;;;;;;9.27;2.13;;;8.30;99.90;;;;;;6097910;23;20014;-86
2021/05/06 07:57:52;;;;;;;8.77;2.50;;;8.30;99.90;;;;;;6097747;23;20482;-87
2021/05/06 08:00:20;;;;;;;3.70;1.42;;;8.40;99.90;;;;;;6121386;23;20022;-87
2021/05/06 08:02:48;;;;;;;4.63;1.55;;;8.40;99.90;;;;;;6146425;23;20016;-87
2021/05/06 08:05:14;;;;;;;3.92;0.95;;;8.40;99.90;;;;;;6098748;23;20021;-87
2021/05/06 08:07:41;;;;;;;11.02;1.80;;;8.10;99.90;;;;;;6172161;23;20037;-86
2021/05/06 08:10:08;;;;;;;11.13;1.40;;;6.90;99.90;;;;;;6146215;23;20021;-86
2021/05/06 08:12:35;;;;;;;4.35;1.30;;;5.30;99.90;;;;;;6097601;23;20018;-85
2021/05/06 08:15:04;;;;;;;5.30;2.03;;;4.20;99.90;;;;;;6121374;23;20060;-86
2021/05/06 08:17:30;;;;;;;2.08;1.13;;;4.00;99.90;;;;;;6145806;23;20044;-86
2021/05/06 08:19:57;;;;;;;7.90;2.03;;;4.00;99.90;;;;;;6122515;23;20014;-86
2021/05/06 08:22:23;;;;;;;7.15;1.77;;;4.20;99.90;;;;;;6097870;23;20097;-87
2021/05/06 08:24:48;;;;;;;7.85;2.05;;;4.30;99.90;;;;;;6097994;23;20038;-88
2021/05/06 08:27:14;;;;;;;5.10;1.73;;;4.50;99.90;;;;;;6097930;23;20021;-88
2021/05/06 08:29:40;;;;;;;8.60;2.72;;;4.60;99.90;;;;;;6122288;23;20022;-88
2021/05/06 08:32:06;;;;;;;8.93;2.70;;;4.70;99.90;;;;;;6147428;23;20010;-88
2021/05/06 08:34:32;;;;;;;8.73;2.70;;;4.90;99.90;;;;;;6099613;23;20010;-87
2021/05/06 08:36:57;;;;;;;7.95;2.75;;;5.00;99.90;;;;;;6074306;23;20022;-88
2021/05/06 08:39:23;;;;;;;5.30;2.17;;;5.10;99.90;;;;;;6097914;23;20017;-88
2021/05/06 08:41:50;;;;;;;8.20;2.85;;;5.20;99.90;;;;;;6120562;23;20041;-87
2021/05/06 08:44:18;;;;;;;7.28;2.58;;;5.10;99.90;;;;;;6122738;23;20093;-87
2021/05/06 08:47:02;;;;;;;8.70;3.60;;;5.10;99.90;;;;;;6121821;23;20468;-87
2021/05/06 08:49:27;;;;;;;;;;;5.00;99.90;;;;;;6119862;23;20018;-87
2021/05/06 08:51:53;;;;;;;9.15;3.63;;;5.00;99.90;;;;;;6119850;23;19959;-87
2021/05/06 08:54:19;;;;;;;5.32;3.70;;;5.10;99.90;;;;;;6145686;23;20014;-87
2021/05/06 08:56:45;;;;;;;6.50;3.22;;;5.10;99.90;;;;;;6121599;23;20088;-88
2021/05/06 08:59:11;;;;;;;5.85;3.42;;;5.20;99.90;;;;;;6120333;23;20042;-87
2021/05/06 09:01:37;;;;;;;5.60;2.60;;;5.30;99.90;;;;;;6096489;23;20462;-87
2021/05/06 09:04:03;;;;;;;4.53;2.65;;;5.40;99.90;;;;;;6098773;23;20018;-86
2021/05/06 09:06:28;;;;;;;7.47;3.67;;;5.40;99.90;;;;;;6123582;23;20475;-87
2021/05/06 09:09:00;;;;;;;7.15;2.72;;;5.40;99.90;;;;;;6096306;23;20018;-87
2021/05/06 09:11:42;;;;;;;7.18;3.03;;;5.50;99.90;;;;;;6146465;23;20069;-86
2021/05/06 09:14:09;;;;;;;8.00;3.20;;;5.60;99.90;;;;;;6146809;23;20114;-86
2021/05/06 09:16:37;;;;;;;3.97;2.15;;;5.60;99.90;;;;;;6124178;23;20013;-86
2021/05/06 09:19:05;;;;;;;4.22;1.50;;;5.60;99.90;;;;;;6096860;23;20026;-86
2021/05/06 09:21:35;;;;;;;5.25;2.50;;;5.60;99.90;;;;;;6121159;23;20554;-86
2021/05/06 09:24:11;;;;;;;8.95;2.90;;;5.60;99.90;;;;;;6123175;23;20157;-87
2021/05/06 09:26:39;;;;;;;6.30;2.20;;;5.60;99.90;;;;;;6123032;23;20017;-86
2021/05/06 09:29:07;;;;;;;4.72;2.70;;;5.70;99.90;;;;;;6147298;23;20018;-87
2021/05/06 09:31:39;;;;;;;5.05;2.45;;;5.80;99.90;;;;;;6146098;23;20010;-87
2021/05/06 09:34:08;;;;;;;6.53;2.05;;;5.80;99.90;;;;;;6123102;23;20093;-87
2021/05/06 09:36:35;;;;;;;7.80;2.33;;;5.90;99.90;;;;;;6146213;23;20013;-87
2021/05/06 09:39:02;;;;;;;6.95;2.38;;;6.00;99.90;;;;;;6146923;23;20014;-87
2021/05/06 09:41:31;;;;;;;3.63;1.90;;;6.10;99.90;;;;;;6123715;23;20492;-87
2021/05/06 09:44:12;;;;;;;8.50;2.90;;;6.20;99.90;;;;;;6121875;23;20018;-87
2021/05/06 09:46:55;;;;;;;9.70;3.03;;;6.40;99.90;;;;;;6146020;23;20041;-87
2021/05/06 09:49:23;;;;;;;7.60;2.90;;;6.50;99.90;;;;;;6146112;23;20018;-86
2021/05/06 09:51:51;;;;;;;10.73;3.42;;;6.60;99.90;;;;;;6146155;23;20093;-87
2021/05/06 09:54:28;;;;;;;6.95;2.90;;;6.60;99.90;;;;;;6122821;23;20020;-87
2021/05/06 09:57:06;;;;;;;8.07;3.00;;;6.70;99.90;;;;;;6144101;23;20033;-87
2021/05/06 09:59:36;;;;;;;8.90;2.78;;;6.70;99.90;;;;;;6146030;23;20057;-86
2021/05/06 10:02:17;;;;;;;5.90;2.30;;;6.70;99.90;;;;;;6122049;23;20097;-88
2021/05/06 10:04:44;;;;;;;4.05;2.33;;;6.70;99.90;;;;;;6122354;23;20013;-86
2021/05/06 10:07:15;;;;;;;7.03;2.67;;;6.70;99.90;;;;;;6146576;23;20053;-87
2021/05/06 10:09:58;;;;;;;10.88;2.97;;;6.70;99.90;;;;;;6121286;23;20430;-87
2021/05/06 10:12:26;;;;;;;9.13;3.90;;;6.70;99.90;;;;;;6144747;23;20017;-87
2021/05/06 10:14:53;;;;;;;10.75;3.13;;;6.80;99.90;;;;;;6145626;23;20088;-88
2021/05/06 10:17:20;;;;;;;6.10;3.15;;;6.90;99.90;;;;;;6146276;23;20017;-87
2021/05/06 10:19:46;;;;;;;8.45;3.55;;;7.10;99.90;;;;;;6120408;23;20380;-87
2021/05/06 10:22:15;;;;;;;11.80;3.90;;;7.20;99.90;;;;;;6144910;23;20014;-88
2021/05/06 10:24:42;;;;;;;6.45;3.50;;;7.30;99.90;;;;;;6123185;23;20014;-87
2021/05/06 10:27:12;;;;;;;9.07;3.60;;;7.40;99.90;;;;;;6123254;23;20332;-87
2021/05/06 10:29:39;;;;;;;11.93;4.18;;;7.40;99.90;;;;;;6146318;23;20022;-87
2021/05/06 10:32:09;;;;;;;6.88;4.10;;;7.50;99.90;;;;;;6121436;23;20010;-86
2021/05/06 10:34:35;;;;;;;8.85;3.97;;;7.60;99.90;;;;;;6144872;23;20021;-87
2021/05/06 10:37:02;;;;;;;5.95;3.35;;;7.60;99.90;;;;;;6122511;23;20093;-85
2021/05/06 10:39:42;;;;;;;8.23;4.05;;;7.60;99.90;;;;;;6122383;23;20452;-88
2021/05/06 10:42:29;;;;;;;9.00;4.55;;;7.60;99.90;;;;;;6121132;23;20010;-87
2021/05/06 10:45:16;;;;;;;10.45;4.70;;;7.60;99.90;;;;;;6123563;23;20021;-87
2021/05/06 10:47:42;;;;;;;7.93;5.07;;;7.70;99.90;;;;;;6092199;23;20050;-87
2021/05/06 10:50:25;;;;;;;7.32;4.90;;;7.60;99.90;;;;;;6122294;23;20356;-87
2021/05/06 10:52:55;;;;;;;;;;;7.60;99.90;;;;;;6123701;23;20354;-87
2021/05/06 10:55:42;;;;;;;8.10;5.15;;;7.60;99.90;;;;;;6147069;23;19917;-87
2021/05/06 10:58:27;;;;;;;11.00;5.10;;;7.60;99.90;;;;;;6146184;23;20020;-87
2021/05/06 11:01:05;;;;;;;8.88;5.10;;;7.60;99.90;;;;;;6169806;23;20080;-87
2021/05/06 11:03:32;;;;;;;8.80;5.50;;;7.50;99.90;;;;;;6123387;23;20096;-87
2021/05/06 11:05:58;;;;;;;14.65;5.70;;;7.50;99.90;;;;;;6146440;23;20069;-88
2021/05/06 11:08:29;;;;;;;10.20;6.10;;;7.60;99.90;;;;;;6122300;23;20081;-87
2021/05/06 11:11:01;;;;;;;9.85;4.32;;;7.60;99.90;;;;;;6170832;23;20049;-87
2021/05/06 11:13:48;;;;;;;10.63;5.00;;;7.60;99.90;;;;;;6145791;23;20656;-87
2021/05/06 11:16:15;;;;;;;8.07;5.30;;;7.60;99.90;;;;;;6122180;23;20018;-85
2021/05/06 11:18:47;;;;;;;9.88;5.72;;;7.60;99.90;;;;;;6146649;23;20518;-86
2021/05/06 11:21:31;;;;;;;9.77;5.25;;;7.60;99.90;;;;;;6122308;23;20018;-85
2021/05/06 11:24:34;;;;;;;9.57;5.03;;;7.50;99.90;;;;;;6122757;23;20009;-85
2021/05/06 11:26:59;;;;;;;9.63;6.32;;;7.40;99.90;;;;;;6122722;23;20526;-85
2021/05/06 11:29:31;;;;;;;15.05;5.28;;;7.30;99.90;;;;;;6098655;23;20018;-86
2021/05/06 11:31:57;;;;;;;9.23;5.80;;;7.10;99.90;;;;;;6121679;23;20088;-87
2021/05/06 11:34:30;;;;;;;15.48;7.25;;;7.10;99.90;;;;;;6097960;23;20384;-87
2021/05/06 11:37:16;;;;;;;13.13;8.00;;;7.00;99.90;;;;;;6097370;23;20069;-87
2021/05/06 11:39:53;;;;;;;13.45;6.15;;;7.00;99.90;;;;;;6145330;23;20014;-84
2021/05/06 11:42:20;;;;;;;20.10;12.70;;;7.00;99.90;;;;;;6122521;23;20014;-87
2021/05/06 11:45:09;;;;;;;15.40;9.02;;;7.10;99.90;;;;;;6122273;23;20040;-84
2021/05/06 11:47:35;;;;;;;9.38;4.65;;;7.20;99.90;;;;;;6174965;23;20017;-88
2021/05/06 11:50:33;;;;;;;10.55;4.45;;;7.20;99.90;;;;;;6101336;23;20021;-87
2021/05/06 11:53:01;;;;;;;12.15;6.40;;;7.20;99.90;;;;;;6151655;23;20052;-87
2021/05/06 11:55:33;;;;;;;8.35;5.80;;;7.30;99.90;;;;;;6174933;23;20010;-86
2021/05/06 11:58:00;;;;;;;11.13;5.45;;;7.40;99.90;;;;;;6125594;23;20017;-87
2021/05/06 12:00:30;;;;;;;9.95;5.10;;;7.50;99.90;;;;;;6149796;23;20021;-87
2021/05/06 12:03:01;;;;;;;11.85;5.90;;;7.50;99.90;;;;;;6175621;23;20523;-87
2021/05/06 12:05:54;;;;;;;13.02;6.95;;;7.60;99.90;;;;;;6101940;23;20328;-87
2021/05/06 12:08:21;;;;;;;;;;;7.70;99.90;;;;;;6125466;23;20019;-86
2021/05/06 12:10:47;;;;;;;11.88;6.93;;;7.80;99.90;;;;;;6149846;23;20322;-87
2021/05/06 12:13:14;;;;;;;12.40;6.25;;;8.00;99.90;;;;;;6127439;23;20077;-87
2021/05/06 12:15:40;;;;;;;10.48;5.25;;;8.10;99.90;;;;;;6127376;23;20013;-84
2021/05/06 12:18:23;;;;;;;13.63;7.35;;;8.10;99.90;;;;;;6078819;23;20033;-87
2021/05/06 12:20:56;;;;;;;8.13;6.03;;;8.10;99.90;;;;;;6175724;23;20017;-87
2021/05/06 12:23:24;;;;;;;7.32;5.68;;;8.20;99.90;;;;;;6153585;23;20018;-87
2021/05/06 12:25:51;;;;;;;7.63;4.55;;;8.20;99.90;;;;;;6152456;23;20037;-87
2021/05/06 12:28:17;;;;;;;11.48;5.15;;;8.10;99.90;;;;;;6127841;23;20072;-86
2021/05/06 12:30:43;;;;;;;10.23;5.45;;;8.00;99.90;;;;;;6176643;23;20064;-87
2021/05/06 12:33:09;;;;;;;8.13;5.30;;;8.00;99.90;;;;;;6128870;23;20021;-87
2021/05/06 12:35:51;;;;;;;9.38;5.50;;;8.10;99.90;;;;;;6104441;23;20017;-87
2021/05/06 12:38:17;;;;;;;9.48;5.40;;;8.40;99.90;;;;;;6104342;23;20021;-86
2021/05/06 12:40:44;;;;;;;8.52;5.53;;;8.50;99.90;;;;;;6153655;23;20025;-86
2021/05/06 12:43:31;;;;;;;8.38;4.90;;;8.60;99.90;;;;;;6128815;23;20477;-87
2021/05/06 12:46:03;;;;;;;10.30;5.20;;;8.60;99.90;;;;;;6153875;23;20010;-86
2021/05/06 12:48:50;;;;;;;9.18;5.82;;;8.60;99.90;;;;;;6178194;23;20024;-87
2021/05/06 12:51:15;;;;;;;7.78;4.47;;;8.60;99.90;;;;;;6176736;23;20009;-87
2021/05/06 12:54:06;;;;;;;7.90;4.20;;;8.60;99.90;;;;;;6127936;23;20016;-86
2021/05/06 12:56:36;;;;;;;6.55;4.50;;;8.60;99.90;;;;;;6127738;23;20017;-87
2021/05/06 12:59:21;;;;;;;7.03;4.40;;;8.60;99.90;;;;;;6127897;23;20068;-86
2021/05/06 13:01:47;;;;;;;7.30;3.15;;;8.80;99.90;;;;;;6102482;23;20010;-86
2021/05/06 13:04:13;;;;;;;10.30;4.25;;;8.90;99.90;;;;;;6128116;23;20085;-87
2021/05/06 13:06:39;;;;;;;7.40;3.75;;;9.00;99.90;;;;;;6127675;23;20426;-86
2021/05/06 13:09:16;;;;;;;7.07;4.38;;;9.00;99.90;;;;;;6128147;23;20014;-86
2021/05/06 13:11:44;;;;;;;7.90;4.40;;;9.00;99.90;;;;;;6177236;23;20069;-87
2021/05/06 13:14:11;;;;;;;6.88;3.70;;;8.90;99.90;;;;;;6127970;23;20021;-86
2021/05/06 13:16:37;;;;;;;6.70;3.13;;;9.00;99.90;;;;;;6128450;23;20024;-86
2021/05/06 13:19:05;;;;;;;7.78;4.22;;;9.00;99.90;;;;;;6176725;23;20017;-87
2021/05/06 13:21:32;;;;;;;6.00;3.95;;;8.90;99.90;;;;;;6152513;23;20017;-87
2021/05/06 13:23:58;;;;;;;4.97;3.85;;;9.00;99.90;;;;;;6151970;23;20459;-87
2021/05/06 13:26:35;;;;;;;7.80;4.30;;;9.00;99.90;;;;;;6127158;23;20045;-86
2021/05/06 13:29:06;;;;;;;8.18;4.00;;;8.90;99.90;;;;;;6127251;23;20018;-86
2021/05/06 13:31:37;;;;;;;7.28;4.28;;;8.80;99.90;;;;;;6126876;23;20014;-86
2021/05/06 13:34:19;;;;;;;6.03;3.83;;;8.80;99.90;;;;;;6154348;23;20017;-86
2021/05/06 13:36:58;;;;;;;7.00;3.22;;;8.70;99.90;;;;;;6127219;23;20009;-86
2021/05/06 13:39:24;;;;;;;6.88;3.97;;;8.60;99.90;;;;;;6153101;23;20028;-86
2021/05/06 13:41:50;;;;;;;10.82;4.82;;;8.50;99.90;;;;;;6102610;23;20010;-86
2021/05/06 13:44:18;;;;;;;5.85;4.03;;;8.50;99.90;;;;;;6103471;23;20020;-86
2021/05/06 13:46:55;;;;;;;8.25;3.90;;;8.40;99.90;;;;;;6153101;23;20072;-87
2021/05/06 13:49:25;;;;;;;3.58;2.55;;;8.40;99.90;;;;;;6104061;23;20785;-86
2021/05/06 13:51:52;;;;;;;4.60;2.67;;;8.30;99.90;;;;;;6175896;23;20017;-86
2021/05/06 13:54:20;;;;;;;3.92;2.08;;;8.20;99.90;;;;;;6127353;23;20022;-86
2021/05/06 13:56:46;;;;;;;2.95;1.98;;;8.20;99.90;;;;;;6126536;23;20018;-86
2021/05/06 13:59:12;;;;;;;5.85;2.05;;;8.20;99.90;;;;;;6101583;23;20084;-86
2021/05/06 14:01:38;;;;;;;5.13;2.70;;;8.20;99.90;;;;;;6125723;23;20017;-86
2021/05/06 14:04:05;;;;;;;3.83;2.42;;;8.30;99.90;;;;;;6127106;23;20076;-86
2021/05/06 14:06:32;;;;;;;8.13;2.50;;;8.30;99.90;;;;;;6126960;23;20013;-86
2021/05/06 14:08:58;;;;;;;3.33;2.60;;;8.40;99.90;;;;;;6102731;23;20045;-85
2021/05/06 14:11:26;;;;;;;4.78;2.00;;;8.50;99.90;;;;;;6102673;23;20080;-86
2021/05/06 14:13:58;;;;;;;2.67;1.90;;;8.70;99.90;;;;;;6153156;23;20013;-86
2021/05/06 14:16:25;;;;;;;4.55;2.13;;;8.90;99.90;;;;;;6102508;23;20026;-87
2021/05/06 14:18:51;;;;;;;4.97;2.55;;;9.10;99.90;;;;;;6175957;23;20072;-86
2021/05/06 14:21:22;;;;;;;3.13;2.10;;;9.30;99.90;;;;;;6126149;23;20013;-85
2021/05/06 14:23:48;;;;;;;8.38;2.30;;;9.50;99.90;;;;;;6127936;23;20017;-87
2021/05/06 14:26:14;;;;;;;4.70;2.83;;;9.70;99.90;;;;;;6127500;23;20089;-86
2021/05/06 14:28:42;;;;;;;3.97;2.55;;;9.80;99.90;;;;;;6126775;23;20120;-84
2021/05/06 14:31:09;;;;;;;5.07;2.72;;;10.00;99.90;;;;;;6102763;23;20014;-86
2021/05/06 14:33:35;;;;;;;4.32;2.78;;;10.10;99.90;;;;;;6153519;23;20044;-85
2021/05/06 14:36:05;;;;;;;15.77;5.82;;;10.30;99.90;;;;;;6152989;23;20020;-85
2021/05/06 14:38:31;;;;;;;7.95;3.67;;;10.30;99.90;;;;;;6126738;23;20072;-86
2021/05/06 14:40:57;;;;;;;7.82;3.78;;;10.40;99.90;;;;;;6101764;23;20021;-86
2021/05/06 14:43:23;;;;;;;7.07;3.13;;;10.40;99.90;;;;;;6102333;23;20010;-86
2021/05/06 14:45:49;;;;;;;4.18;2.88;;;10.50;99.90;;;;;;6175458;23;20013;-86
2021/05/06 14:48:15;;;;;;;4.72;2.65;;;10.50;99.90;;;;;;6127304;23;20018;-86
2021/05/06 14:50:41;;;;;;;8.20;2.53;;;10.50;99.90;;;;;;6101125;23;20067;-86
2021/05/06 14:53:07;;;;;;;6.28;2.65;;;10.50;99.90;;;;;;6126328;23;20096;-85
2021/05/06 14:55:34;;;;;;;3.42;2.67;;;10.40;99.90;;;;;;6175784;23;20031;-84
2021/05/06 14:57:59;;;;;;;5.00;2.85;;;10.40;99.90;;;;;;6126559;23;20041;-85
2021/05/06 15:00:25;;;;;;;4.18;2.63;;;10.30;99.90;;;;;;6101174;23;20018;-86
2021/05/06 15:02:51;;;;;;;4.80;2.90;;;10.20;99.90;;;;;;6152715;23;20020;-85
2021/05/06 15:05:19;;;;;;;4.65;2.00;;;10.30;99.90;;;;;;6176389;23;20013;-86
2021/05/06 15:07:46;;;;;;;4.88;2.60;;;10.20;99.90;;;;;;6126493;23;20470;-86
2021/05/06 15:10:12;;;;;;;2.88;2.30;;;10.20;99.90;;;;;;6101174;23;20017;-86
2021/05/06 15:12:42;;;;;;;5.65;2.22;;;10.20;99.90;;;;;;6176452;23;20088;-86
2021/05/06 15:15:08;;;;;;;3.67;1.90;;;10.20;99.90;;;;;;6126554;23;20045;-85
2021/05/06 15:17:34;;;;;;;4.20;2.42;;;10.30;99.90;;;;;;6151358;23;20017;-85
2021/05/06 15:19:59;;;;;;;5.05;2.17;;;10.20;99.90;;;;;;6101597;23;20455;-84
2021/05/06 15:22:25;;;;;;;7.28;2.60;;;10.20;99.90;;;;;;6101945;23;20474;-86
2021/05/06 15:24:52;;;;;;;5.50;2.00;;;10.20;99.90;;;;;;6102027;23;20025;-86
2021/05/06 15:27:18;;;;;;;4.55;1.83;;;10.30;99.90;;;;;;6126302;23;20032;-86
2021/05/06 15:29:44;;;;;;;4.07;1.73;;;10.30;99.90;;;;;;6125726;23;20017;-86
2021/05/06 15:32:11;;;;;;;4.93;1.83;;;10.30;99.90;;;;;;6125465;23;20024;-86
2021/05/06 15:34:37;;;;;;;4.60;2.20;;;10.30;99.90;;;;;;6151988;23;20010;-87
2021/05/06 15:37:04;;;;;;;5.82;2.20;;;10.30;99.90;;;;;;6126546;23;20479;-85
2021/05/06 15:39:29;;;;;;;3.75;1.75;;;10.30;99.90;;;;;;6126186;23;20024;-86
2021/05/06 15:41:55;;;;;;;4.10;2.20;;;10.30;99.90;;;;;;6099946;23;20017;-85
2021/05/06 15:44:21;;;;;;;4.78;2.88;;;10.20;99.90;;;;;;6101221;23;20068;-86
2021/05/06 15:46:47;;;;;;;4.82;2.28;;;10.20;99.90;;;;;;6101749;23;20913;-86
2021/05/06 15:49:13;;;;;;;3.20;2.47;;;10.10;99.90;;;;;;6153613;23;20017;-86
2021/05/06 15:51:39;;;;;;;4.32;2.53;;;10.00;99.90;;;;;;6102481;23;20088;-86
2021/05/06 15:54:06;;;;;;;5.57;3.03;;;9.90;99.90;;;;;;6103146;23;20013;-86
2021/05/06 15:56:33;;;;;;;5.90;2.85;;;9.60;99.90;;;;;;6127328;23;20481;-85
2021/05/06 15:59:00;;;;;;;4.93;3.40;;;9.50;99.90;;;;;;6153223;23;20018;-86
2021/05/06 16:01:27;;;;;;;5.72;3.60;;;9.30;99.90;;;;;;6120741;23;20665;-86
2021/05/06 16:04:04;;;;;;;5.50;2.97;;;9.20;99.90;;;;;;6153645;23;20063;-85
2021/05/06 16:06:30;;;;;;;5.00;2.92;;;9.00;99.90;;;;;;6130776;23;20083;-84
2021/05/06 16:08:56;;;;;;;6.20;3.00;;;8.90;99.90;;;;;;6104548;23;20017;-86
2021/05/06 16:11:22;;;;;;;4.03;2.90;;;8.80;99.90;;;;;;6103155;23;20021;-85
2021/05/06 16:13:48;;;;;;;6.63;3.22;;;8.70;99.90;;;;;;6103722;23;20014;-85
2021/05/06 16:16:14;;;;;;;5.93;3.50;;;8.60;99.90;;;;;;6103788;23;20019;-85
2021/05/06 16:18:45;;;;;;;3.97;2.78;;;8.60;99.90;;;;;;6103686;23;20018;-85
2021/05/06 16:21:11;;;;;;;6.10;3.50;;;8.50;99.90;;;;;;6128408;23;20036;-86
2021/05/06 16:23:38;;;;;;;6.40;3.50;;;8.40;99.90;;;;;;6126895;23;20010;-86
2021/05/06 16:26:06;;;;;;;6.00;3.47;;;8.30;99.90;;;;;;6127797;23;20014;-86
2021/05/06 16:28:32;;;;;;;5.45;3.80;;;8.30;99.90;;;;;;6102974;23;20013;-86
2021/05/06 16:31:01;;;;;;;7.68;3.70;;;8.20;99.90;;;;;;6102103;23;20013;-86
2021/05/06 16:33:27;;;;;;;6.05;3.92;;;8.20;99.90;;;;;;6104119;23;20025;-85
2021/05/06 16:36:02;;;;;;;8.27;4.47;;;8.20;99.90;;;;;;6152458;23;20037;-86
2021/05/06 16:38:30;;;;;;;5.07;3.60;;;8.20;99.90;;;;;;6104452;23;20040;-86
2021/05/06 16:41:02;;;;;;;5.22;4.10;;;8.10;99.90;;;;;;6152410;23;20525;-85
2021/05/06 16:45:56;;;;;;;5.43;4.13;;;8.20;99.90;;;;;;6128633;23;20100;-85